Terminal Aerodrome Forecast
Issued by NWS

Home | Current Version | Previous Version | Text Only | Print | Product List | Glossary On
Versions: 1 2 3 4 5 6 7 8 9 10 11 12 13
558
FTUS44 KLIX 240520
TAFGPT
TAF
KGPT 240520Z 2406/2506 00000KT P6SM SKC
     FM241000 34005KT P6SM BKN015 BKN110
     FM241600 07005KT P6SM SCT025 BKN100
      TEMPO 2417/2421 4SM TSRA BKN025CB
     FM242200 13004KT P6SM SCT025 BKN080 PROB30 2422/2424 4SM TSRA
      BKN025CB
     FM250000 01002KT P6SM SCT030=

USA.gov is the U.S. government's official web portal to all federal, state and local government web resources and services.